sensor_id;sensor_type;location;lat;lon;timestamp;P1;durP1;ratioP1;P2;durP2;ratioP2
16994;SDS011;8614;48.522;9.206;2024-03-08T00:00:58;28.70;;;25.80;;
16994;SDS011;8614;48.522;9.206;2024-03-08T00:03:25;29.63;;;26.53;;
16994;SDS011;8614;48.522;9.206;2024-03-08T00:05:54;29.60;;;26.53;;
16994;SDS011;8614;48.522;9.206;2024-03-08T00:08:22;29.20;;;26.13;;
16994;SDS011;8614;48.522;9.206;2024-03-08T00:10:50;27.73;;;24.80;;
16994;SDS011;8614;48.522;9.206;2024-03-08T00:13:16;27.57;;;24.87;;
16994;SDS011;8614;48.522;9.206;2024-03-08T00:15:43;27.40;;;24.63;;
16994;SDS011;8614;48.522;9.206;2024-03-08T00:18:10;26.87;;;24.17;;
16994;SDS011;8614;48.522;9.206;2024-03-08T00:20:37;27.53;;;24.73;;
16994;SDS011;8614;48.522;9.206;2024-03-08T00:23:04;27.00;;;24.30;;
16994;SDS011;8614;48.522;9.206;2024-03-08T00:25:32;25.53;;;23.00;;
16994;SDS011;8614;48.522;9.206;2024-03-08T00:27:59;27.37;;;24.57;;
16994;SDS011;8614;48.522;9.206;2024-03-08T00:30:26;27.80;;;24.90;;
16994;SDS011;8614;48.522;9.206;2024-03-08T00:32:52;26.67;;;23.97;;
16994;SDS011;8614;48.522;9.206;2024-03-08T00:35:19;28.70;;;25.50;;
16994;SDS011;8614;48.522;9.206;2024-03-08T00:37:46;27.17;;;24.40;;
16994;SDS011;8614;48.522;9.206;2024-03-08T00:40:12;27.03;;;24.23;;
16994;SDS011;8614;48.522;9.206;2024-03-08T00:42:41;26.93;;;24.27;;
16994;SDS011;8614;48.522;9.206;2024-03-08T00:45:09;27.77;;;25.00;;
16994;SDS011;8614;48.522;9.206;2024-03-08T00:47:36;27.53;;;24.57;;
16994;SDS011;8614;48.522;9.206;2024-03-08T00:50:03;27.80;;;24.87;;
16994;SDS011;8614;48.522;9.206;2024-03-08T00:52:31;27.87;;;25.00;;
16994;SDS011;8614;48.522;9.206;2024-03-08T00:54:59;27.73;;;24.73;;
16994;SDS011;8614;48.522;9.206;2024-03-08T00:57:26;27.67;;;24.87;;
16994;SDS011;8614;48.522;9.206;2024-03-08T00:59:55;26.47;;;23.03;;
16994;SDS011;8614;48.522;9.206;2024-03-08T01:02:22;27.23;;;24.47;;
16994;SDS011;8614;48.522;9.206;2024-03-08T01:04:49;26.73;;;24.13;;
16994;SDS011;8614;48.522;9.206;2024-03-08T01:07:16;28.30;;;24.40;;
16994;SDS011;8614;48.522;9.206;2024-03-08T01:09:43;27.70;;;23.60;;
16994;SDS011;8614;48.522;9.206;2024-03-08T01:12:10;26.80;;;23.90;;
16994;SDS011;8614;48.522;9.206;2024-03-08T01:14:36;27.20;;;24.40;;
16994;SDS011;8614;48.522;9.206;2024-03-08T01:17:05;28.73;;;25.63;;
16994;SDS011;8614;48.522;9.206;2024-03-08T01:19:31;27.43;;;24.63;;
16994;SDS011;8614;48.522;9.206;2024-03-08T01:21:58;29.73;;;26.37;;
16994;SDS011;8614;48.522;9.206;2024-03-08T01:24:25;27.10;;;24.30;;
16994;SDS011;8614;48.522;9.206;2024-03-08T01:26:52;26.87;;;24.27;;
16994;SDS011;8614;48.522;9.206;2024-03-08T01:29:18;26.90;;;24.27;;
16994;SDS011;8614;48.522;9.206;2024-03-08T01:31:45;26.13;;;23.43;;
16994;SDS011;8614;48.522;9.206;2024-03-08T01:34:13;25.67;;;23.17;;
16994;SDS011;8614;48.522;9.206;2024-03-08T01:36:40;25.83;;;23.20;;
16994;SDS011;8614;48.522;9.206;2024-03-08T01:39:07;26.50;;;23.90;;
16994;SDS011;8614;48.522;9.206;2024-03-08T01:41:34;26.87;;;23.40;;
16994;SDS011;8614;48.522;9.206;2024-03-08T01:44:01;26.97;;;24.33;;
16994;SDS011;8614;48.522;9.206;2024-03-08T01:46:28;29.03;;;26.03;;
16994;SDS011;8614;48.522;9.206;2024-03-08T01:48:56;28.43;;;25.43;;
16994;SDS011;8614;48.522;9.206;2024-03-08T01:51:33;28.93;;;25.97;;
16994;SDS011;8614;48.522;9.206;2024-03-08T01:54:00;29.63;;;26.47;;
16994;SDS011;8614;48.522;9.206;2024-03-08T01:56:29;26.40;;;23.60;;
16994;SDS011;8614;48.522;9.206;2024-03-08T01:58:58;27.37;;;24.17;;
16994;SDS011;8614;48.522;9.206;2024-03-08T02:01:26;27.37;;;24.47;;
16994;SDS011;8614;48.522;9.206;2024-03-08T02:03:53;27.80;;;24.83;;
16994;SDS011;8614;48.522;9.206;2024-03-08T02:06:20;29.97;;;25.67;;
16994;SDS011;8614;48.522;9.206;2024-03-08T02:08:48;27.23;;;24.33;;
16994;SDS011;8614;48.522;9.206;2024-03-08T02:11:15;28.07;;;25.23;;
16994;SDS011;8614;48.522;9.206;2024-03-08T02:13:42;28.50;;;25.47;;
16994;SDS011;8614;48.522;9.206;2024-03-08T02:16:09;28.13;;;25.27;;
16994;SDS011;8614;48.522;9.206;2024-03-08T02:18:36;28.30;;;25.50;;
16994;SDS011;8614;48.522;9.206;2024-03-08T02:21:06;28.10;;;25.27;;
16994;SDS011;8614;48.522;9.206;2024-03-08T02:23:33;27.83;;;24.83;;
16994;SDS011;8614;48.522;9.206;2024-03-08T02:26:00;29.23;;;25.60;;
16994;SDS011;8614;48.522;9.206;2024-03-08T02:28:27;28.40;;;25.50;;
16994;SDS011;8614;48.522;9.206;2024-03-08T02:30:54;27.50;;;24.63;;
16994;SDS011;8614;48.522;9.206;2024-03-08T02:33:21;26.87;;;24.03;;
16994;SDS011;8614;48.522;9.206;2024-03-08T02:35:49;27.97;;;24.97;;
16994;SDS011;8614;48.522;9.206;2024-03-08T02:38:18;28.23;;;25.33;;
16994;SDS011;8614;48.522;9.206;2024-03-08T02:40:47;26.43;;;23.63;;
16994;SDS011;8614;48.522;9.206;2024-03-08T02:43:15;27.77;;;24.87;;
16994;SDS011;8614;48.522;9.206;2024-03-08T02:45:44;28.97;;;25.97;;
16994;SDS011;8614;48.522;9.206;2024-03-08T02:48:11;27.73;;;24.83;;
16994;SDS011;8614;48.522;9.206;2024-03-08T02:50:38;31.60;;;24.67;;
16994;SDS011;8614;48.522;9.206;2024-03-08T02:53:07;27.53;;;24.70;;
16994;SDS011;8614;48.522;9.206;2024-03-08T02:55:36;27.07;;;24.17;;
16994;SDS011;8614;48.522;9.206;2024-03-08T02:58:03;27.80;;;24.93;;
16994;SDS011;8614;48.522;9.206;2024-03-08T03:00:30;28.43;;;25.37;;
16994;SDS011;8614;48.522;9.206;2024-03-08T03:02:57;27.43;;;24.63;;
16994;SDS011;8614;48.522;9.206;2024-03-08T03:05:24;26.57;;;24.00;;
16994;SDS011;8614;48.522;9.206;2024-03-08T03:07:51;27.43;;;24.37;;
16994;SDS011;8614;48.522;9.206;2024-03-08T03:10:18;26.47;;;23.87;;
16994;SDS011;8614;48.522;9.206;2024-03-08T03:12:48;26.87;;;24.03;;
16994;SDS011;8614;48.522;9.206;2024-03-08T03:15:15;25.53;;;23.03;;
16994;SDS011;8614;48.522;9.206;2024-03-08T03:17:45;27.80;;;24.80;;
16994;SDS011;8614;48.522;9.206;2024-03-08T03:20:13;28.57;;;24.47;;
16994;SDS011;8614;48.522;9.206;2024-03-08T03:22:47;29.13;;;26.10;;
16994;SDS011;8614;48.522;9.206;2024-03-08T03:25:17;28.80;;;25.23;;
16994;SDS011;8614;48.522;9.206;2024-03-08T03:27:50;27.53;;;24.83;;
16994;SDS011;8614;48.522;9.206;2024-03-08T03:30:17;29.60;;;26.53;;
16994;SDS011;8614;48.522;9.206;2024-03-08T03:32:47;27.20;;;24.37;;
16994;SDS011;8614;48.522;9.206;2024-03-08T03:35:15;28.80;;;25.77;;
16994;SDS011;8614;48.522;9.206;2024-03-08T03:37:42;27.53;;;24.53;;
16994;SDS011;8614;48.522;9.206;2024-03-08T03:40:11;29.03;;;25.93;;
16994;SDS011;8614;48.522;9.206;2024-03-08T03:42:39;30.83;;;25.33;;
16994;SDS011;8614;48.522;9.206;2024-03-08T03:45:08;28.00;;;24.80;;
16994;SDS011;8614;48.522;9.206;2024-03-08T03:47:35;28.97;;;25.67;;
16994;SDS011;8614;48.522;9.206;2024-03-08T03:50:03;29.53;;;26.03;;
16994;SDS011;8614;48.522;9.206;2024-03-08T03:52:31;31.20;;;26.10;;
16994;SDS011;8614;48.522;9.206;2024-03-08T03:54:58;27.60;;;24.70;;
16994;SDS011;8614;48.522;9.206;2024-03-08T03:57:25;27.87;;;25.07;;
16994;SDS011;8614;48.522;9.206;2024-03-08T03:59:51;27.60;;;24.90;;
16994;SDS011;8614;48.522;9.206;2024-03-08T04:02:20;32.20;;;26.33;;
16994;SDS011;8614;48.522;9.206;2024-03-08T04:04:46;28.07;;;25.17;;
16994;SDS011;8614;48.522;9.206;2024-03-08T04:07:14;28.13;;;25.10;;
16994;SDS011;8614;48.522;9.206;2024-03-08T04:09:41;27.90;;;24.40;;
16994;SDS011;8614;48.522;9.206;2024-03-08T04:12:08;27.40;;;23.70;;
16994;SDS011;8614;48.522;9.206;2024-03-08T04:14:35;28.13;;;25.23;;
16994;SDS011;8614;48.522;9.206;2024-03-08T04:17:02;28.70;;;25.77;;
16994;SDS011;8614;48.522;9.206;2024-03-08T04:19:31;27.33;;;24.43;;
16994;SDS011;8614;48.522;9.206;2024-03-08T04:21:59;30.67;;;27.40;;
16994;SDS011;8614;48.522;9.206;2024-03-08T04:24:27;29.03;;;26.03;;
16994;SDS011;8614;48.522;9.206;2024-03-08T04:26:55;30.43;;;27.10;;
16994;SDS011;8614;48.522;9.206;2024-03-08T04:29:22;31.47;;;26.23;;
16994;SDS011;8614;48.522;9.206;2024-03-08T04:31:49;28.50;;;25.77;;
16994;SDS011;8614;48.522;9.206;2024-03-08T04:34:19;29.10;;;25.80;;
16994;SDS011;8614;48.522;9.206;2024-03-08T04:36:47;29.80;;;26.57;;
16994;SDS011;8614;48.522;9.206;2024-03-08T04:39:14;28.43;;;25.43;;
16994;SDS011;8614;48.522;9.206;2024-03-08T04:41:41;33.67;;;27.60;;
16994;SDS011;8614;48.522;9.206;2024-03-08T04:44:09;29.87;;;26.17;;
16994;SDS011;8614;48.522;9.206;2024-03-08T04:46:37;27.60;;;24.77;;
16994;SDS011;8614;48.522;9.206;2024-03-08T04:49:04;28.20;;;25.03;;
16994;SDS011;8614;48.522;9.206;2024-03-08T04:51:32;29.37;;;26.30;;
16994;SDS011;8614;48.522;9.206;2024-03-08T04:54:01;30.17;;;25.23;;
16994;SDS011;8614;48.522;9.206;2024-03-08T04:56:27;31.20;;;27.33;;
16994;SDS011;8614;48.522;9.206;2024-03-08T04:58:54;30.53;;;26.37;;
16994;SDS011;8614;48.522;9.206;2024-03-08T05:01:21;29.83;;;26.63;;
16994;SDS011;8614;48.522;9.206;2024-03-08T05:03:48;28.23;;;25.40;;
16994;SDS011;8614;48.522;9.206;2024-03-08T05:06:16;35.20;;;29.27;;
16994;SDS011;8614;48.522;9.206;2024-03-08T05:08:43;34.90;;;30.23;;
16994;SDS011;8614;48.522;9.206;2024-03-08T05:11:11;34.20;;;30.27;;
16994;SDS011;8614;48.522;9.206;2024-03-08T05:13:39;35.83;;;30.20;;
16994;SDS011;8614;48.522;9.206;2024-03-08T05:16:06;33.83;;;30.17;;
16994;SDS011;8614;48.522;9.206;2024-03-08T05:18:33;33.03;;;28.60;;
16994;SDS011;8614;48.522;9.206;2024-03-08T05:21:01;31.43;;;28.00;;
16994;SDS011;8614;48.522;9.206;2024-03-08T05:23:29;33.77;;;30.17;;
16994;SDS011;8614;48.522;9.206;2024-03-08T05:25:55;32.90;;;27.93;;
16994;SDS011;8614;48.522;9.206;2024-03-08T05:28:24;32.60;;;28.97;;
16994;SDS011;8614;48.522;9.206;2024-03-08T05:30:51;33.60;;;29.97;;
16994;SDS011;8614;48.522;9.206;2024-03-08T05:33:19;33.23;;;28.50;;
16994;SDS011;8614;48.522;9.206;2024-03-08T05:35:46;33.43;;;29.30;;
16994;SDS011;8614;48.522;9.206;2024-03-08T05:38:13;32.47;;;29.03;;
16994;SDS011;8614;48.522;9.206;2024-03-08T05:40:40;36.47;;;31.30;;
16994;SDS011;8614;48.522;9.206;2024-03-08T05:43:08;32.83;;;29.37;;
16994;SDS011;8614;48.522;9.206;2024-03-08T05:45:38;31.00;;;27.77;;
16994;SDS011;8614;48.522;9.206;2024-03-08T05:48:05;33.33;;;29.63;;
16994;SDS011;8614;48.522;9.206;2024-03-08T05:50:33;33.30;;;28.67;;
16994;SDS011;8614;48.522;9.206;2024-03-08T05:53:00;32.80;;;28.13;;
16994;SDS011;8614;48.522;9.206;2024-03-08T05:55:26;30.80;;;27.60;;
16994;SDS011;8614;48.522;9.206;2024-03-08T05:57:55;31.20;;;27.90;;
16994;SDS011;8614;48.522;9.206;2024-03-08T06:00:21;30.30;;;27.20;;
16994;SDS011;8614;48.522;9.206;2024-03-08T06:02:50;33.70;;;29.03;;
16994;SDS011;8614;48.522;9.206;2024-03-08T06:05:17;30.90;;;27.60;;
16994;SDS011;8614;48.522;9.206;2024-03-08T06:07:44;33.73;;;29.77;;
16994;SDS011;8614;48.522;9.206;2024-03-08T06:10:11;35.37;;;29.07;;
16994;SDS011;8614;48.522;9.206;2024-03-08T06:12:38;32.70;;;28.97;;
16994;SDS011;8614;48.522;9.206;2024-03-08T06:15:06;30.83;;;27.40;;
16994;SDS011;8614;48.522;9.206;2024-03-08T06:17:34;28.80;;;25.80;;
16994;SDS011;8614;48.522;9.206;2024-03-08T06:20:03;32.40;;;28.30;;
16994;SDS011;8614;48.522;9.206;2024-03-08T06:22:35;29.60;;;26.53;;
16994;SDS011;8614;48.522;9.206;2024-03-08T06:25:02;28.73;;;25.77;;
16994;SDS011;8614;48.522;9.206;2024-03-08T06:27:30;29.60;;;26.50;;
16994;SDS011;8614;48.522;9.206;2024-03-08T06:29:59;28.77;;;25.87;;
16994;SDS011;8614;48.522;9.206;2024-03-08T06:32:25;29.97;;;26.20;;
16994;SDS011;8614;48.522;9.206;2024-03-08T06:34:52;29.67;;;26.57;;
16994;SDS011;8614;48.522;9.206;2024-03-08T06:37:20;32.90;;;29.50;;
16994;SDS011;8614;48.522;9.206;2024-03-08T06:39:48;30.83;;;27.73;;
16994;SDS011;8614;48.522;9.206;2024-03-08T06:42:16;30.07;;;26.83;;
16994;SDS011;8614;48.522;9.206;2024-03-08T06:44:43;30.00;;;26.70;;
16994;SDS011;8614;48.522;9.206;2024-03-08T06:47:14;30.00;;;26.30;;
16994;SDS011;8614;48.522;9.206;2024-03-08T06:49:41;30.43;;;27.17;;
16994;SDS011;8614;48.522;9.206;2024-03-08T06:52:08;31.93;;;27.50;;
16994;SDS011;8614;48.522;9.206;2024-03-08T06:54:36;33.33;;;27.90;;
16994;SDS011;8614;48.522;9.206;2024-03-08T06:57:04;30.50;;;27.13;;
16994;SDS011;8614;48.522;9.206;2024-03-08T06:59:31;31.60;;;28.23;;
16994;SDS011;8614;48.522;9.206;2024-03-08T07:01:57;30.47;;;27.07;;
16994;SDS011;8614;48.522;9.206;2024-03-08T07:04:25;29.70;;;26.73;;
16994;SDS011;8614;48.522;9.206;2024-03-08T07:06:54;31.63;;;27.40;;
16994;SDS011;8614;48.522;9.206;2024-03-08T07:09:22;31.20;;;27.47;;
16994;SDS011;8614;48.522;9.206;2024-03-08T07:11:51;28.03;;;25.10;;
16994;SDS011;8614;48.522;9.206;2024-03-08T07:14:20;28.97;;;25.90;;
16994;SDS011;8614;48.522;9.206;2024-03-08T07:16:48;28.87;;;25.80;;
16994;SDS011;8614;48.522;9.206;2024-03-08T07:19:15;28.67;;;25.73;;
16994;SDS011;8614;48.522;9.206;2024-03-08T07:21:42;28.03;;;25.20;;
16994;SDS011;8614;48.522;9.206;2024-03-08T07:24:09;26.60;;;23.90;;
16994;SDS011;8614;48.522;9.206;2024-03-08T07:26:54;28.93;;;26.03;;
16994;SDS011;8614;48.522;9.206;2024-03-08T07:29:20;33.13;;;27.77;;
16994;SDS011;8614;48.522;9.206;2024-03-08T07:31:47;27.70;;;24.87;;
16994;SDS011;8614;48.522;9.206;2024-03-08T07:34:21;29.77;;;26.73;;
16994;SDS011;8614;48.522;9.206;2024-03-08T07:36:48;27.33;;;24.70;;
16994;SDS011;8614;48.522;9.206;2024-03-08T07:39:16;28.67;;;25.67;;
16994;SDS011;8614;48.522;9.206;2024-03-08T07:41:44;28.27;;;25.40;;
16994;SDS011;8614;48.522;9.206;2024-03-08T07:44:12;30.37;;;26.20;;
16994;SDS011;8614;48.522;9.206;2024-03-08T07:46:39;27.67;;;24.87;;
16994;SDS011;8614;48.522;9.206;2024-03-08T07:49:06;27.53;;;24.47;;
16994;SDS011;8614;48.522;9.206;2024-03-08T07:51:36;28.10;;;25.30;;
16994;SDS011;8614;48.522;9.206;2024-03-08T07:54:02;27.20;;;24.40;;
16994;SDS011;8614;48.522;9.206;2024-03-08T07:56:29;26.63;;;23.57;;
16994;SDS011;8614;48.522;9.206;2024-03-08T07:58:56;25.73;;;23.23;;
16994;SDS011;8614;48.522;9.206;2024-03-08T08:01:24;27.70;;;24.83;;
16994;SDS011;8614;48.522;9.206;2024-03-08T08:03:51;27.87;;;24.97;;
16994;SDS011;8614;48.522;9.206;2024-03-08T08:06:18;27.20;;;24.50;;
16994;SDS011;8614;48.522;9.206;2024-03-08T08:08:45;27.53;;;24.73;;
16994;SDS011;8614;48.522;9.206;2024-03-08T08:11:11;26.87;;;24.00;;
16994;SDS011;8614;48.522;9.206;2024-03-08T08:13:40;26.30;;;23.67;;
16994;SDS011;8614;48.522;9.206;2024-03-08T08:16:08;27.73;;;24.83;;
16994;SDS011;8614;48.522;9.206;2024-03-08T08:18:37;27.67;;;24.83;;
16994;SDS011;8614;48.522;9.206;2024-03-08T08:21:04;27.33;;;24.43;;
16994;SDS011;8614;48.522;9.206;2024-03-08T08:23:31;27.03;;;24.33;;
16994;SDS011;8614;48.522;9.206;2024-03-08T08:25:58;26.53;;;23.83;;
16994;SDS011;8614;48.522;9.206;2024-03-08T08:28:25;25.83;;;23.33;;
16994;SDS011;8614;48.522;9.206;2024-03-08T08:30:51;27.53;;;24.83;;
16994;SDS011;8614;48.522;9.206;2024-03-08T08:33:19;25.57;;;23.07;;
16994;SDS011;8614;48.522;9.206;2024-03-08T08:35:47;25.57;;;23.07;;
16994;SDS011;8614;48.522;9.206;2024-03-08T08:38:16;26.50;;;23.97;;
16994;SDS011;8614;48.522;9.206;2024-03-08T08:40:45;25.53;;;23.13;;
16994;SDS011;8614;48.522;9.206;2024-03-08T08:43:12;26.97;;;24.47;;
16994;SDS011;8614;48.522;9.206;2024-03-08T08:45:39;24.77;;;22.30;;
16994;SDS011;8614;48.522;9.206;2024-03-08T08:48:06;25.13;;;22.43;;
16994;SDS011;8614;48.522;9.206;2024-03-08T08:50:33;25.17;;;22.80;;
16994;SDS011;8614;48.522;9.206;2024-03-08T08:53:02;26.03;;;23.53;;
16994;SDS011;8614;48.522;9.206;2024-03-08T08:55:32;24.33;;;22.07;;
16994;SDS011;8614;48.522;9.206;2024-03-08T08:58:00;25.57;;;23.00;;
16994;SDS011;8614;48.522;9.206;2024-03-08T09:00:28;25.30;;;22.90;;
16994;SDS011;8614;48.522;9.206;2024-03-08T09:02:56;25.60;;;23.00;;
16994;SDS011;8614;48.522;9.206;2024-03-08T09:05:23;25.63;;;23.03;;
16994;SDS011;8614;48.522;9.206;2024-03-08T09:07:51;25.50;;;22.93;;
16994;SDS011;8614;48.522;9.206;2024-03-08T09:10:20;25.20;;;22.73;;
16994;SDS011;8614;48.522;9.206;2024-03-08T09:12:47;25.10;;;22.70;;
16994;SDS011;8614;48.522;9.206;2024-03-08T09:15:14;24.20;;;21.90;;
16994;SDS011;8614;48.522;9.206;2024-03-08T09:17:45;24.67;;;22.27;;
16994;SDS011;8614;48.522;9.206;2024-03-08T09:20:13;24.83;;;22.43;;
16994;SDS011;8614;48.522;9.206;2024-03-08T09:22:40;24.37;;;22.07;;
16994;SDS011;8614;48.522;9.206;2024-03-08T09:25:09;24.43;;;22.23;;
16994;SDS011;8614;48.522;9.206;2024-03-08T09:27:37;24.33;;;22.00;;
16994;SDS011;8614;48.522;9.206;2024-03-08T09:30:05;23.70;;;21.50;;
16994;SDS011;8614;48.522;9.206;2024-03-08T09:32:32;24.40;;;22.10;;
16994;SDS011;8614;48.522;9.206;2024-03-08T09:34:59;23.73;;;21.43;;
16994;SDS011;8614;48.522;9.206;2024-03-08T09:37:26;24.40;;;22.13;;
16994;SDS011;8614;48.522;9.206;2024-03-08T09:39:53;23.57;;;21.37;;
16994;SDS011;8614;48.522;9.206;2024-03-08T09:42:20;25.57;;;22.93;;
16994;SDS011;8614;48.522;9.206;2024-03-08T09:44:48;24.90;;;22.40;;
16994;SDS011;8614;48.522;9.206;2024-03-08T09:47:15;23.43;;;21.13;;
16994;SDS011;8614;48.522;9.206;2024-03-08T09:49:42;23.73;;;21.37;;
16994;SDS011;8614;48.522;9.206;2024-03-08T09:52:09;24.13;;;21.73;;
16994;SDS011;8614;48.522;9.206;2024-03-08T09:54:37;23.07;;;20.87;;
16994;SDS011;8614;48.522;9.206;2024-03-08T09:57:04;23.20;;;20.93;;
16994;SDS011;8614;48.522;9.206;2024-03-08T09:59:34;23.50;;;21.00;;
16994;SDS011;8614;48.522;9.206;2024-03-08T10:02:15;21.90;;;19.80;;
16994;SDS011;8614;48.522;9.206;2024-03-08T10:04:42;24.07;;;21.73;;
16994;SDS011;8614;48.522;9.206;2024-03-08T10:07:12;22.80;;;20.60;;
16994;SDS011;8614;48.522;9.206;2024-03-08T10:09:39;23.00;;;20.77;;
16994;SDS011;8614;48.522;9.206;2024-03-08T10:12:07;24.20;;;21.70;;
16994;SDS011;8614;48.522;9.206;2024-03-08T10:14:38;23.03;;;20.83;;
16994;SDS011;8614;48.522;9.206;2024-03-08T10:17:06;22.93;;;20.67;;
16994;SDS011;8614;48.522;9.206;2024-03-08T10:19:34;23.83;;;21.53;;
16994;SDS011;8614;48.522;9.206;2024-03-08T10:22:01;23.73;;;21.43;;
16994;SDS011;8614;48.522;9.206;2024-03-08T10:24:29;23.00;;;20.77;;
16994;SDS011;8614;48.522;9.206;2024-03-08T10:26:59;23.70;;;21.30;;
16994;SDS011;8614;48.522;9.206;2024-03-08T10:29:27;22.93;;;20.83;;
16994;SDS011;8614;48.522;9.206;2024-03-08T10:31:54;24.10;;;21.80;;
16994;SDS011;8614;48.522;9.206;2024-03-08T10:34:22;22.97;;;20.80;;
16994;SDS011;8614;48.522;9.206;2024-03-08T10:36:51;23.20;;;21.10;;
16994;SDS011;8614;48.522;9.206;2024-03-08T10:39:20;23.13;;;20.83;;
16994;SDS011;8614;48.522;9.206;2024-03-08T10:41:53;23.30;;;21.10;;
16994;SDS011;8614;48.522;9.206;2024-03-08T10:44:40;24.03;;;21.73;;
16994;SDS011;8614;48.522;9.206;2024-03-08T10:47:17;24.13;;;21.63;;
16994;SDS011;8614;48.522;9.206;2024-03-08T10:49:54;21.33;;;19.50;;
16994;SDS011;8614;48.522;9.206;2024-03-08T10:52:30;22.33;;;20.23;;
16994;SDS011;8614;48.522;9.206;2024-03-08T10:54:57;22.47;;;20.37;;
16994;SDS011;8614;48.522;9.206;2024-03-08T10:57:25;22.80;;;20.57;;
16994;SDS011;8614;48.522;9.206;2024-03-08T10:59:53;24.37;;;21.97;;
16994;SDS011;8614;48.522;9.206;2024-03-08T11:02:23;23.60;;;21.50;;
16994;SDS011;8614;48.522;9.206;2024-03-08T11:04:53;23.30;;;21.00;;
16994;SDS011;8614;48.522;9.206;2024-03-08T11:07:21;22.93;;;20.87;;
16994;SDS011;8614;48.522;9.206;2024-03-08T11:09:49;24.93;;;22.53;;
16994;SDS011;8614;48.522;9.206;2024-03-08T11:12:23;22.40;;;20.30;;
16994;SDS011;8614;48.522;9.206;2024-03-08T11:14:52;23.33;;;21.13;;
16994;SDS011;8614;48.522;9.206;2024-03-08T11:17:26;23.70;;;21.40;;
16994;SDS011;8614;48.522;9.206;2024-03-08T11:20:08;24.67;;;22.40;;
16994;SDS011;8614;48.522;9.206;2024-03-08T11:22:40;23.93;;;21.53;;
16994;SDS011;8614;48.522;9.206;2024-03-08T11:28:11;24.13;;;21.73;;
16994;SDS011;8614;48.522;9.206;2024-03-08T11:30:45;25.07;;;22.67;;
16994;SDS011;8614;48.522;9.206;2024-03-08T11:33:14;24.33;;;22.00;;
16994;SDS011;8614;48.522;9.206;2024-03-08T11:35:42;24.97;;;22.43;;
16994;SDS011;8614;48.522;9.206;2024-03-08T11:38:11;25.20;;;22.67;;
16994;SDS011;8614;48.522;9.206;2024-03-08T11:40:40;24.10;;;21.80;;
16994;SDS011;8614;48.522;9.206;2024-03-08T11:43:08;24.77;;;22.57;;
16994;SDS011;8614;48.522;9.206;2024-03-08T11:45:35;26.27;;;23.67;;
16994;SDS011;8614;48.522;9.206;2024-03-08T11:48:02;25.93;;;23.33;;
16994;SDS011;8614;48.522;9.206;2024-03-08T11:50:30;23.83;;;21.53;;
16994;SDS011;8614;48.522;9.206;2024-03-08T11:53:02;23.97;;;21.67;;
16994;SDS011;8614;48.522;9.206;2024-03-08T11:55:29;23.40;;;21.17;;
16994;SDS011;8614;48.522;9.206;2024-03-08T11:58:02;25.33;;;22.90;;
16994;SDS011;8614;48.522;9.206;2024-03-08T12:00:30;26.47;;;23.60;;
16994;SDS011;8614;48.522;9.206;2024-03-08T12:03:03;23.03;;;20.80;;
16994;SDS011;8614;48.522;9.206;2024-03-08T12:05:32;21.93;;;19.77;;
16994;SDS011;8614;48.522;9.206;2024-03-08T12:07:59;23.20;;;20.73;;
16994;SDS011;8614;48.522;9.206;2024-03-08T12:10:26;25.60;;;23.10;;
16994;SDS011;8614;48.522;9.206;2024-03-08T12:12:54;23.00;;;20.80;;
16994;SDS011;8614;48.522;9.206;2024-03-08T12:15:25;24.73;;;22.33;;
16994;SDS011;8614;48.522;9.206;2024-03-08T12:17:54;23.97;;;21.57;;
16994;SDS011;8614;48.522;9.206;2024-03-08T12:20:23;23.27;;;21.07;;
16994;SDS011;8614;48.522;9.206;2024-03-08T12:22:51;23.47;;;21.00;;
16994;SDS011;8614;48.522;9.206;2024-03-08T12:25:19;23.37;;;21.07;;
16994;SDS011;8614;48.522;9.206;2024-03-08T12:27:46;22.40;;;20.27;;
16994;SDS011;8614;48.522;9.206;2024-03-08T12:33:11;23.87;;;21.47;;
16994;SDS011;8614;48.522;9.206;2024-03-08T12:35:38;25.27;;;22.57;;
16994;SDS011;8614;48.522;9.206;2024-03-08T12:38:07;24.90;;;22.00;;
16994;SDS011;8614;48.522;9.206;2024-03-08T12:40:34;23.33;;;21.10;;
16994;SDS011;8614;48.522;9.206;2024-03-08T12:43:05;22.80;;;20.53;;
16994;SDS011;8614;48.522;9.206;2024-03-08T12:45:32;23.73;;;21.40;;
16994;SDS011;8614;48.522;9.206;2024-03-08T12:48:01;23.80;;;21.43;;
16994;SDS011;8614;48.522;9.206;2024-03-08T12:50:28;22.60;;;20.43;;
16994;SDS011;8614;48.522;9.206;2024-03-08T12:52:56;22.53;;;20.23;;
16994;SDS011;8614;48.522;9.206;2024-03-08T12:55:22;23.00;;;20.80;;
16994;SDS011;8614;48.522;9.206;2024-03-08T12:57:49;21.20;;;19.20;;
16994;SDS011;8614;48.522;9.206;2024-03-08T13:00:18;22.43;;;20.33;;
16994;SDS011;8614;48.522;9.206;2024-03-08T13:02:45;22.67;;;20.47;;
16994;SDS011;8614;48.522;9.206;2024-03-08T13:05:13;22.70;;;20.50;;
16994;SDS011;8614;48.522;9.206;2024-03-08T13:07:41;20.70;;;18.87;;
16994;SDS011;8614;48.522;9.206;2024-03-08T13:10:11;21.90;;;19.90;;
16994;SDS011;8614;48.522;9.206;2024-03-08T13:12:40;24.43;;;22.03;;
16994;SDS011;8614;48.522;9.206;2024-03-08T13:15:07;24.63;;;21.97;;
16994;SDS011;8614;48.522;9.206;2024-03-08T13:17:36;24.53;;;22.13;;
16994;SDS011;8614;48.522;9.206;2024-03-08T13:20:06;23.57;;;21.27;;
16994;SDS011;8614;48.522;9.206;2024-03-08T13:22:35;23.77;;;21.27;;
16994;SDS011;8614;48.522;9.206;2024-03-08T13:25:02;23.67;;;21.37;;
16994;SDS011;8614;48.522;9.206;2024-03-08T13:27:30;23.23;;;21.00;;
16994;SDS011;8614;48.522;9.206;2024-03-08T13:29:57;21.67;;;19.67;;
16994;SDS011;8614;48.522;9.206;2024-03-08T13:32:23;21.47;;;19.33;;
16994;SDS011;8614;48.522;9.206;2024-03-08T13:34:51;22.57;;;20.37;;
16994;SDS011;8614;48.522;9.206;2024-03-08T13:37:19;24.50;;;22.10;;
16994;SDS011;8614;48.522;9.206;2024-03-08T13:39:47;24.20;;;21.87;;
16994;SDS011;8614;48.522;9.206;2024-03-08T13:42:14;22.67;;;20.43;;
16994;SDS011;8614;48.522;9.206;2024-03-08T13:44:45;23.83;;;21.47;;
16994;SDS011;8614;48.522;9.206;2024-03-08T13:47:12;24.83;;;22.20;;
16994;SDS011;8614;48.522;9.206;2024-03-08T13:49:39;22.97;;;20.70;;
16994;SDS011;8614;48.522;9.206;2024-03-08T13:52:08;21.97;;;19.87;;
16994;SDS011;8614;48.522;9.206;2024-03-08T13:54:35;24.70;;;22.30;;
16994;SDS011;8614;48.522;9.206;2024-03-08T13:57:05;24.27;;;22.03;;
16994;SDS011;8614;48.522;9.206;2024-03-08T13:59:34;21.03;;;19.10;;
16994;SDS011;8614;48.522;9.206;2024-03-08T14:02:02;22.00;;;19.80;;
16994;SDS011;8614;48.522;9.206;2024-03-08T14:04:29;22.13;;;19.90;;
16994;SDS011;8614;48.522;9.206;2024-03-08T14:06:56;22.57;;;20.47;;
16994;SDS011;8614;48.522;9.206;2024-03-08T14:09:28;21.17;;;19.07;;
16994;SDS011;8614;48.522;9.206;2024-03-08T14:11:56;20.90;;;18.97;;
16994;SDS011;8614;48.522;9.206;2024-03-08T14:14:25;20.53;;;18.30;;
16994;SDS011;8614;48.522;9.206;2024-03-08T14:16:51;22.20;;;20.10;;
16994;SDS011;8614;48.522;9.206;2024-03-08T14:19:19;21.63;;;19.50;;
16994;SDS011;8614;48.522;9.206;2024-03-08T14:21:46;22.70;;;20.40;;
16994;SDS011;8614;48.522;9.206;2024-03-08T14:24:14;22.03;;;19.73;;
16994;SDS011;8614;48.522;9.206;2024-03-08T14:26:41;22.53;;;20.13;;
16994;SDS011;8614;48.522;9.206;2024-03-08T14:29:08;20.47;;;18.27;;
16994;SDS011;8614;48.522;9.206;2024-03-08T14:31:37;21.03;;;19.03;;
16994;SDS011;8614;48.522;9.206;2024-03-08T14:34:05;20.83;;;18.80;;
16994;SDS011;8614;48.522;9.206;2024-03-08T14:36:32;22.33;;;19.87;;
16994;SDS011;8614;48.522;9.206;2024-03-08T14:38:59;21.57;;;19.57;;
16994;SDS011;8614;48.522;9.206;2024-03-08T14:41:26;20.90;;;18.83;;
16994;SDS011;8614;48.522;9.206;2024-03-08T14:43:56;21.23;;;19.13;;